Time;durP1;ratioP1;P1;durP2;ratioP2;P2;SDS_P1;SDS_P2;PMS_P1;PMS_P2;Temp;Humidity;BMP_temperature;BMP_pressure;BME280_temperature;BME280_humidity;BME280_pressure;Samples;Min_cycle;Max_cycle;Signal;HPM_P1;HPM_P2
2021/04/08 00:01:54;;;;;;;2.65;2.33;;;4.40;40.50;;;;;;6282006;22;20227;-78
2021/04/08 00:04:21;;;;;;;3.90;2.42;;;4.40;40.50;;;;;;6278576;22;20174;-78
2021/04/08 00:06:47;;;;;;;2.70;2.50;;;4.30;40.50;;;;;;6279614;22;20176;-79
2021/04/08 00:09:13;;;;;;;6.93;3.00;;;4.30;40.40;;;;;;6280337;22;20575;-78
2021/04/08 00:11:40;;;;;;;3.88;2.53;;;4.40;40.50;;;;;;6281704;22;20239;-79
2021/04/08 00:14:06;;;;;;;3.80;2.60;;;4.40;40.20;;;;;;6296862;22;20165;-80
2021/04/08 00:16:34;;;;;;;3.55;2.88;;;4.40;40.00;;;;;;6303374;22;20161;-81
2021/04/08 00:19:00;;;;;;;3.72;2.90;;;4.40;40.10;;;;;;6290279;22;20272;-80
2021/04/08 00:21:27;;;;;;;4.22;2.28;;;4.50;39.80;;;;;;6279121;22;20189;-78
2021/04/08 00:23:53;;;;;;;4.75;2.83;;;4.40;39.70;;;;;;6284625;22;20177;-79
2021/04/08 00:26:20;;;;;;;2.60;2.15;;;4.40;39.70;;;;;;6287841;22;20203;-81
2021/04/08 00:28:46;;;;;;;4.68;3.10;;;4.50;39.50;;;;;;6282038;22;20201;-79
2021/04/08 00:31:12;;;;;;;5.95;2.60;;;4.50;39.20;;;;;;6282410;22;20205;-79
2021/04/08 00:33:40;;;;;;;3.40;2.40;;;4.50;39.40;;;;;;6286071;22;20184;-79
2021/04/08 00:36:07;;;;;;;2.90;2.40;;;4.40;39.20;;;;;;6284219;22;20208;-79
2021/04/08 00:38:33;;;;;;;3.10;2.28;;;4.40;39.10;;;;;;6283227;22;20197;-79
2021/04/08 00:41:02;;;;;;;3.95;2.85;;;4.50;39.20;;;;;;6283036;22;20193;-78
2021/04/08 00:43:28;;;;;;;3.25;2.50;;;4.40;39.30;;;;;;6282576;22;20212;-78
2021/04/08 00:45:55;;;;;;;3.13;2.38;;;4.40;38.90;;;;;;6281639;22;20219;-79
2021/04/08 00:48:21;;;;;;;5.25;2.75;;;4.40;39.20;;;;;;6290709;22;20224;-79
2021/04/08 00:50:49;;;;;;;5.40;2.60;;;4.40;38.60;;;;;;6285034;22;20262;-80
2021/04/08 00:53:19;;;;;;;3.08;2.30;;;4.40;38.10;;;;;;6286782;22;20203;-79
2021/04/08 00:55:48;;;;;;;5.07;2.60;;;4.40;37.80;;;;;;6281486;22;20298;-77
2021/04/08 00:58:16;;;;;;;2.85;2.13;;;4.40;37.80;;;;;;6289374;22;20209;-80
2021/04/08 01:00:43;;;;;;;4.78;2.40;;;4.40;37.80;;;;;;6293316;22;20188;-78
2021/04/08 01:03:10;;;;;;;4.07;2.60;;;4.40;38.30;;;;;;6297045;22;20189;-80
2021/04/08 01:05:36;;;;;;;4.32;2.58;;;4.40;38.30;;;;;;6290773;22;20619;-79
2021/04/08 01:08:05;;;;;;;5.40;2.55;;;4.30;37.70;;;;;;6278573;22;20519;-80
2021/04/08 01:10:32;;;;;;;3.45;2.30;;;4.30;37.70;;;;;;6287004;22;20187;-79
2021/04/08 01:13:01;;;;;;;3.33;2.40;;;4.30;37.90;;;;;;6296136;22;20631;-79
2021/04/08 01:15:29;;;;;;;3.38;2.10;;;4.20;38.20;;;;;;6301015;22;20301;-79
2021/04/08 01:18:06;;;;;;;3.92;2.63;;;4.20;38.30;;;;;;6291330;22;20227;-79
2021/04/08 01:21:07;;;;;;;4.57;2.40;;;4.10;38.50;;;;;;6302516;22;20160;-79
2021/04/08 01:24:07;;;;;;;4.40;2.17;;;4.10;39.00;;;;;;6297962;22;20185;-78
2021/04/08 01:27:06;;;;;;;3.45;2.22;;;4.00;39.30;;;;;;6293780;22;20370;-78
2021/04/08 01:29:52;;;;;;;2.90;2.60;;;4.00;39.60;;;;;;6247970;22;20197;-78
2021/04/08 01:32:21;;;;;;;2.75;2.20;;;3.90;39.90;;;;;;6286317;22;20169;-79
2021/04/08 01:34:51;;;;;;;3.28;2.60;;;3.90;40.10;;;;;;6291475;22;20169;-79
2021/04/08 01:37:25;;;;;;;9.90;2.95;;;3.90;40.10;;;;;;6304756;22;20177;-80
2021/04/08 01:39:53;;;;;;;5.30;2.50;;;3.90;40.80;;;;;;6294672;22;20650;-78
2021/04/08 01:42:21;;;;;;;5.50;3.45;;;3.90;40.10;;;;;;6278720;22;20572;-80
2021/04/08 01:44:49;;;;;;;4.88;3.00;;;3.90;40.10;;;;;;6286107;22;20188;-79
2021/04/08 01:47:17;;;;;;;6.70;3.83;;;3.90;40.20;;;;;;6283174;22;20184;-79
2021/04/08 01:49:47;;;;;;;4.43;2.60;;;3.90;40.10;;;;;;6279199;22;20209;-78
2021/04/08 01:52:15;;;;;;;5.25;3.03;;;3.90;40.10;;;;;;6277343;22;20655;-77
2021/04/08 01:54:46;;;;;;;5.45;3.15;;;3.90;40.10;;;;;;6278713;22;20186;-77
2021/04/08 01:57:14;;;;;;;7.72;3.10;;;3.90;40.10;;;;;;6280237;22;20172;-77
2021/04/08 01:59:43;;;;;;;6.35;2.85;;;4.00;40.20;;;;;;6302287;22;20201;-77
2021/04/08 02:02:12;;;;;;;5.38;3.22;;;3.90;40.50;;;;;;6312194;22;20204;-78
2021/04/08 02:04:39;;;;;;;3.30;3.00;;;4.00;40.20;;;;;;6310938;22;20260;-78
2021/04/08 02:07:07;;;;;;;3.38;3.08;;;3.90;40.50;;;;;;6307266;22;20204;-78
2021/04/08 02:09:37;;;;;;;3.63;3.20;;;3.80;40.80;;;;;;6285524;22;20282;-78
2021/04/08 02:12:04;;;;;;;4.18;3.78;;;3.80;41.10;;;;;;6282785;22;20177;-78
2021/04/08 02:14:31;;;;;;;3.80;3.17;;;3.70;41.20;;;;;;6284470;22;20211;-82
2021/04/08 02:16:58;;;;;;;4.30;3.45;;;3.70;41.40;;;;;;6294644;22;20246;-79
2021/04/08 02:19:26;;;;;;;7.15;4.30;;;3.70;41.80;;;;;;6278527;22;20585;-79
2021/04/08 02:21:52;;;;;;;4.30;3.90;;;3.60;41.60;;;;;;6275558;22;20297;-80
2021/04/08 02:24:20;;;;;;;4.97;3.45;;;3.70;41.80;;;;;;6275541;22;20726;-79
2021/04/08 02:26:47;;;;;;;5.60;3.90;;;3.60;41.80;;;;;;6275423;22;20181;-79
2021/04/08 02:29:16;;;;;;;4.03;3.47;;;3.60;41.50;;;;;;6275900;22;20246;-79
2021/04/08 02:31:43;;;;;;;6.10;3.80;;;3.60;41.50;;;;;;6278762;22;20417;-79
2021/04/08 02:34:11;;;;;;;5.45;3.88;;;3.60;41.60;;;;;;6281633;22;20174;-79
2021/04/08 02:36:38;;;;;;;5.38;4.07;;;3.60;41.30;;;;;;6276741;22;20174;-78
2021/04/08 02:39:06;;;;;;;7.13;3.80;;;3.60;40.90;;;;;;6277513;22;20200;-79
2021/04/08 02:41:37;;;;;;;8.20;3.47;;;3.60;41.00;;;;;;6276560;22;20267;-79
2021/04/08 02:44:05;;;;;;;7.60;4.05;;;3.60;41.30;;;;;;6281499;22;20162;-79
2021/04/08 02:46:31;;;;;;;3.58;2.90;;;3.60;41.10;;;;;;6276986;22;20569;-79
2021/04/08 02:48:58;;;;;;;6.10;3.78;;;3.60;41.10;;;;;;6275564;22;20201;-79
2021/04/08 02:51:29;;;;;;;3.72;3.42;;;3.70;40.90;;;;;;6274657;22;20228;-79
2021/04/08 02:54:04;;;;;;;5.85;3.85;;;3.70;40.90;;;;;;6279102;22;20615;-80
2021/04/08 02:56:34;;;;;;;6.55;3.78;;;3.70;40.90;;;;;;6287864;22;20179;-81
2021/04/08 02:59:07;;;;;;;6.40;3.47;;;3.60;41.00;;;;;;6298608;22;20214;-81
2021/04/08 03:01:43;;;;;;;5.95;3.97;;;3.60;39.50;;;;;;6299698;22;20182;-82
2021/04/08 03:04:13;;;;;;;3.50;3.25;;;3.60;38.80;;;;;;6299795;22;20173;-81
2021/04/08 03:06:41;;;;;;;5.40;3.50;;;3.70;38.10;;;;;;6299079;22;20181;-81
2021/04/08 03:09:09;;;;;;;6.07;3.53;;;3.60;37.30;;;;;;6285527;22;20193;-78
2021/04/08 03:11:37;;;;;;;3.65;3.35;;;3.60;37.20;;;;;;6279421;22;20569;-79
2021/04/08 03:14:08;;;;;;;3.67;2.85;;;3.60;37.20;;;;;;6278657;22;20188;-81
2021/04/08 03:16:38;;;;;;;5.10;3.35;;;3.60;36.80;;;;;;6278836;22;20166;-80
2021/04/08 03:19:06;;;;;;;6.25;3.55;;;3.60;37.20;;;;;;6279933;22;20197;-80
2021/04/08 03:21:34;;;;;;;5.10;3.28;;;3.50;37.10;;;;;;6277867;22;20197;-80
2021/04/08 03:24:02;;;;;;;6.10;3.70;;;3.50;37.60;;;;;;6278013;22;20247;-81
2021/04/08 03:26:30;;;;;;;4.22;3.13;;;3.50;37.60;;;;;;6283108;22;20284;-80
2021/04/08 03:28:58;;;;;;;5.28;4.10;;;3.40;37.60;;;;;;6275738;22;20595;-79
2021/04/08 03:31:25;;;;;;;4.50;3.55;;;3.40;37.90;;;;;;6275214;22;20216;-79
2021/04/08 03:33:52;;;;;;;4.50;3.58;;;3.40;38.00;;;;;;6279811;22;20177;-79
2021/04/08 03:36:20;;;;;;;5.70;4.13;;;3.40;37.80;;;;;;6282141;22;20207;-80
2021/04/08 03:38:47;;;;;;;6.65;3.78;;;3.40;37.20;;;;;;6289434;22;20232;-79
2021/04/08 03:41:14;;;;;;;4.60;4.13;;;3.50;36.50;;;;;;6298194;22;20169;-80
2021/04/08 03:43:42;;;;;;;4.28;3.88;;;3.50;36.20;;;;;;6300016;22;20193;-81
2021/04/08 03:46:10;;;;;;;5.97;3.97;;;3.50;35.60;;;;;;6301147;22;20164;-81
2021/04/08 03:48:38;;;;;;;7.00;4.55;;;3.50;35.80;;;;;;6302008;22;20208;-81
2021/04/08 03:51:07;;;;;;;5.80;4.38;;;3.50;34.80;;;;;;6289633;22;20204;-79
2021/04/08 03:53:34;;;;;;;3.67;3.35;;;3.50;34.80;;;;;;6276466;22;20202;-79
2021/04/08 03:56:03;;;;;;;8.35;4.38;;;3.60;34.90;;;;;;6277374;22;20228;-79
2021/04/08 03:58:29;;;;;;;4.70;4.20;;;3.60;34.90;;;;;;6277827;22;20275;-79
2021/04/08 04:01:00;;;;;;;5.88;4.18;;;3.60;34.90;;;;;;6282903;22;20315;-79
2021/04/08 04:03:28;;;;;;;4.57;3.72;;;3.60;34.90;;;;;;6285252;22;20243;-79
2021/04/08 04:05:54;;;;;;;6.32;4.47;;;3.60;34.90;;;;;;6286480;22;20180;-78
2021/04/08 04:08:21;;;;;;;7.43;4.82;;;3.50;34.90;;;;;;6286448;22;20193;-79
2021/04/08 04:10:48;;;;;;;4.70;3.97;;;3.50;34.80;;;;;;6286238;22;20239;-80
2021/04/08 04:13:16;;;;;;;7.72;4.20;;;3.50;34.80;;;;;;6284803;22;20173;-80
2021/04/08 04:15:47;;;;;;;8.43;5.50;;;3.60;35.60;;;;;;6298369;22;20177;-78
2021/04/08 04:18:17;;;;;;;5.47;4.63;;;3.50;34.80;;;;;;6299830;22;20201;-77
2021/04/08 04:20:45;;;;;;;7.53;4.47;;;3.50;34.80;;;;;;6302378;22;20225;-78
2021/04/08 04:23:12;;;;;;;11.07;5.47;;;3.50;34.90;;;;;;6301520;22;20204;-78
2021/04/08 04:25:39;;;;;;;6.57;4.75;;;3.50;35.30;;;;;;6302073;22;20172;-80
2021/04/08 04:28:06;;;;;;;9.30;4.60;;;3.50;35.60;;;;;;6301863;22;20267;-79
2021/04/08 04:30:32;;;;;;;7.63;4.80;;;3.50;35.40;;;;;;6302109;22;20169;-80
2021/04/08 04:32:59;;;;;;;5.15;4.63;;;3.40;35.10;;;;;;6294039;22;20180;-81
2021/04/08 04:35:25;;;;;;;7.53;5.20;;;3.50;35.80;;;;;;6286066;22;20185;-81
2021/04/08 04:37:53;;;;;;;7.97;5.60;;;3.50;35.60;;;;;;6284272;22;20181;-81
2021/04/08 04:40:19;;;;;;;10.48;4.90;;;3.50;35.30;;;;;;6283380;22;20212;-81
2021/04/08 04:42:46;;;;;;;9.80;4.78;;;3.50;35.20;;;;;;6284726;22;20212;-82
2021/04/08 04:45:15;;;;;;;7.43;5.00;;;3.50;35.40;;;;;;6282900;22;20200;-82
2021/04/08 04:47:43;;;;;;;5.97;5.10;;;3.50;34.90;;;;;;6281593;22;20185;-81
2021/04/08 04:50:11;;;;;;;10.77;5.30;;;3.60;35.60;;;;;;6280468;22;20197;-81
2021/04/08 04:52:38;;;;;;;9.82;5.18;;;3.60;35.30;;;;;;6278999;22;20178;-82
2021/04/08 04:55:07;;;;;;;8.50;5.38;;;3.50;34.80;;;;;;6284830;22;20660;-81
2021/04/08 04:57:33;;;;;;;10.55;5.38;;;3.60;35.00;;;;;;6285384;22;20177;-82
2021/04/08 05:00:00;;;;;;;6.13;4.78;;;3.60;34.90;;;;;;6289382;22;20205;-80
2021/04/08 05:02:26;;;;;;;7.60;5.45;;;3.60;34.90;;;;;;6295637;22;20212;-81
2021/04/08 05:04:53;;;;;;;10.05;5.50;;;3.60;34.90;;;;;;6288209;22;20612;-81
2021/04/08 05:07:19;;;;;;;9.75;5.80;;;3.60;34.90;;;;;;6287158;22;20173;-80
2021/04/08 05:09:46;;;;;;;9.23;6.40;;;3.60;34.90;;;;;;6283209;22;20666;-80
2021/04/08 05:12:13;;;;;;;10.70;5.20;;;3.60;34.90;;;;;;6284255;22;20701;-82
2021/04/08 05:14:40;;;;;;;8.10;5.45;;;3.60;34.90;;;;;;6284221;22;20223;-79
2021/04/08 05:17:06;;;;;;;11.13;5.32;;;3.70;35.00;;;;;;6290976;22;20181;-80
2021/04/08 05:19:33;;;;;;;9.95;6.57;;;3.70;35.00;;;;;;6292200;22;20193;-79
2021/04/08 05:21:59;;;;;;;6.43;5.40;;;3.70;35.00;;;;;;6287398;22;20216;-82
2021/04/08 05:24:26;;;;;;;7.07;5.38;;;3.70;35.00;;;;;;6286850;22;20515;-82
2021/04/08 05:26:52;;;;;;;6.95;5.57;;;3.80;35.10;;;;;;6286075;22;20177;-83
2021/04/08 05:29:19;;;;;;;9.23;5.57;;;3.80;35.10;;;;;;6287518;22;20280;-83
2021/04/08 05:31:46;;;;;;;11.90;6.78;;;3.80;35.10;;;;;;6286287;22;20514;-83
2021/04/08 05:34:13;;;;;;;8.68;6.13;;;3.90;35.20;;;;;;6289019;22;20177;-81
2021/04/08 05:36:39;;;;;;;8.23;6.13;;;3.90;35.20;;;;;;6289070;22;20181;-82
2021/04/08 05:39:06;;;;;;;8.27;5.28;;;3.90;35.20;;;;;;6287567;22;20713;-82
2021/04/08 05:41:32;;;;;;;6.03;5.40;;;4.00;35.30;;;;;;6289131;22;20182;-82
2021/04/08 05:43:59;;;;;;;11.23;6.68;;;4.00;34.70;;;;;;6298450;22;20243;-82
2021/04/08 05:46:26;;;;;;;11.35;5.00;;;4.10;34.40;;;;;;6299998;22;20184;-81
2021/04/08 05:48:53;;;;;;;7.30;5.65;;;4.20;34.30;;;;;;6300149;22;20193;-79
2021/04/08 05:51:19;;;;;;;9.05;5.95;;;4.30;34.30;;;;;;6297968;22;20188;-79
2021/04/08 05:53:45;;;;;;;5.80;5.10;;;4.40;33.60;;;;;;6296516;22;20197;-80
2021/04/08 05:56:12;;;;;;;8.50;5.43;;;4.30;33.50;;;;;;6297059;22;20161;-81
2021/04/08 05:58:38;;;;;;;7.53;5.63;;;4.50;33.90;;;;;;6300614;22;20200;-83
2021/04/08 06:01:05;;;;;;;7.20;5.68;;;4.60;33.20;;;;;;6298987;22;20235;-80
2021/04/08 06:03:32;;;;;;;8.32;6.25;;;4.60;33.10;;;;;;6290860;22;20182;-80
2021/04/08 06:05:59;;;;;;;7.40;5.95;;;4.80;32.70;;;;;;6288555;22;20185;-79
2021/04/08 06:08:25;;;;;;;10.07;5.75;;;4.80;33.00;;;;;;6290416;22;20193;-82
2021/04/08 06:10:52;;;;;;;9.45;5.75;;;4.80;32.00;;;;;;6291950;22;20181;-81
2021/04/08 06:13:18;;;;;;;9.43;6.38;;;4.80;31.90;;;;;;6297850;22;20182;-82
2021/04/08 06:15:45;;;;;;;8.15;6.20;;;4.80;31.80;;;;;;6294341;22;20180;-81
2021/04/08 06:18:11;;;;;;;9.10;5.95;;;4.90;32.10;;;;;;6284521;22;20181;-79
2021/04/08 06:20:38;;;;;;;9.70;7.45;;;5.00;32.00;;;;;;6282495;22;20507;-82
2021/04/08 06:23:06;;;;;;;9.98;6.82;;;5.20;32.10;;;;;;6280116;22;20197;-80
2021/04/08 06:25:33;;;;;;;8.55;6.13;;;5.30;31.90;;;;;;6286619;22;20196;-80
2021/04/08 06:28:00;;;;;;;8.60;5.70;;;5.40;31.50;;;;;;6291599;22;20177;-80
2021/04/08 06:30:27;;;;;;;10.15;5.90;;;5.60;31.70;;;;;;6297690;22;20197;-82
2021/04/08 06:32:54;;;;;;;8.30;6.03;;;5.80;31.80;;;;;;6289740;22;20572;-80
2021/04/08 06:35:21;;;;;;;6.40;5.75;;;5.80;32.00;;;;;;6286263;22;20177;-82
2021/04/08 06:37:50;;;;;;;10.50;6.03;;;5.80;32.30;;;;;;6285329;22;20822;-81
2021/04/08 06:40:18;;;;;;;9.35;6.75;;;5.70;32.50;;;;;;6288786;22;20743;-81
2021/04/08 06:42:47;;;;;;;8.23;6.43;;;5.70;32.70;;;;;;6285011;22;20201;-81
2021/04/08 06:45:15;;;;;;;11.00;6.25;;;5.70;33.00;;;;;;6292492;22;20177;-82
2021/04/08 06:47:54;;;;;;;9.20;6.75;;;5.80;32.50;;;;;;6287024;22;20237;-80
2021/04/08 06:50:23;;;;;;;14.90;6.88;;;5.90;31.90;;;;;;6291437;22;20157;-80
2021/04/08 06:52:52;;;;;;;7.75;6.05;;;6.00;32.10;;;;;;6292655;22;20248;-80
2021/04/08 06:55:19;;;;;;;10.20;6.25;;;6.10;32.80;;;;;;6293465;22;20217;-80
2021/04/08 06:57:47;;;;;;;10.60;7.63;;;6.10;31.70;;;;;;6295172;22;20181;-80
2021/04/08 07:00:15;;;;;;;9.80;6.72;;;6.00;31.90;;;;;;6295201;22;20208;-80
2021/04/08 07:02:41;;;;;;;11.23;7.00;;;5.90;31.90;;;;;;6292595;22;20181;-79
2021/04/08 07:05:09;;;;;;;8.48;6.78;;;5.80;32.40;;;;;;6293702;22;20193;-82
2021/04/08 07:07:35;;;;;;;8.43;7.32;;;5.80;32.60;;;;;;6290600;22;20560;-81
2021/04/08 07:10:04;;;;;;;9.57;6.13;;;5.80;32.30;;;;;;6288824;22;20200;-82
2021/04/08 07:12:31;;;;;;;10.25;6.25;;;5.90;32.50;;;;;;6290311;22;20336;-81
2021/04/08 07:14:58;;;;;;;7.40;5.70;;;6.00;32.30;;;;;;6291960;22;20181;-81
2021/04/08 07:17:25;;;;;;;7.32;6.10;;;6.30;32.30;;;;;;6290117;22;20279;-80
2021/04/08 07:19:51;;;;;;;7.43;5.10;;;6.60;31.30;;;;;;6288407;22;20269;-80
2021/04/08 07:22:18;;;;;;;6.53;5.20;;;6.70;30.80;;;;;;6286130;22;20274;-80
2021/04/08 07:24:46;;;;;;;6.78;5.63;;;6.90;31.20;;;;;;6285197;22;20177;-82
2021/04/08 07:27:19;;;;;;;7.93;5.72;;;6.80;29.00;;;;;;6283621;22;20188;-81
2021/04/08 07:29:51;;;;;;;7.18;5.30;;;6.60;29.20;;;;;;6286525;22;20280;-80
2021/04/08 07:32:22;;;;;;;7.55;5.65;;;6.40;29.00;;;;;;6285790;22;20540;-81
2021/04/08 07:34:49;;;;;;;8.80;5.05;;;6.30;30.10;;;;;;6283206;22;20598;-81
2021/04/08 07:37:22;;;;;;;6.90;5.20;;;6.60;29.80;;;;;;6288316;22;20179;-84
2021/04/08 07:39:49;;;;;;;10.27;5.95;;;6.90;29.30;;;;;;6294583;22;20205;-82
2021/04/08 07:42:19;;;;;;;7.03;6.32;;;7.00;28.40;;;;;;6291261;22;20276;-80
2021/04/08 07:44:48;;;;;;;6.40;4.50;;;7.00;28.40;;;;;;6290933;22;20215;-82
2021/04/08 07:47:17;;;;;;;10.00;5.60;;;7.00;28.40;;;;;;6291229;22;20542;-81
2021/04/08 07:49:44;;;;;;;5.80;5.20;;;7.00;28.90;;;;;;6290873;22;20208;-82
2021/04/08 07:52:32;;;;;;;8.63;5.47;;;7.00;29.20;;;;;;6291457;22;20183;-81
2021/04/08 07:55:08;;;;;;;7.68;5.90;;;6.80;29.10;;;;;;6286308;22;20157;-82
2021/04/08 07:57:55;;;;;;;9.00;5.82;;;6.70;29.20;;;;;;6287521;22;20180;-80
2021/04/08 08:00:23;;;;;;;8.00;6.28;;;6.70;29.60;;;;;;6292946;22;20192;-80
2021/04/08 08:02:50;;;;;;;7.85;6.68;;;6.60;29.30;;;;;;6301159;22;20216;-81
2021/04/08 08:05:21;;;;;;;9.98;6.45;;;6.40;28.90;;;;;;6300998;22;20181;-81
2021/04/08 08:07:48;;;;;;;11.23;7.55;;;6.30;28.70;;;;;;6297109;22;20179;-81
2021/04/08 08:10:27;;;;;;;12.50;7.05;;;6.30;28.00;;;;;;6288991;22;20200;-81
2021/04/08 08:12:54;;;;;;;10.35;7.22;;;6.20;27.90;;;;;;6295803;22;20195;-82
2021/04/08 08:15:29;;;;;;;9.95;6.93;;;6.00;27.70;;;;;;6295080;22;20184;-82
2021/04/08 08:17:57;;;;;;;9.07;7.25;;;6.00;27.80;;;;;;6285961;22;20173;-81
2021/04/08 08:20:25;;;;;;;10.10;6.55;;;5.90;27.70;;;;;;6292047;22;20181;-83
2021/04/08 08:22:53;;;;;;;9.65;7.05;;;6.00;27.80;;;;;;6301132;22;20201;-81
2021/04/08 08:25:25;;;;;;;10.48;7.75;;;6.10;26.60;;;;;;6301892;22;20177;-82
2021/04/08 08:27:53;;;;;;;8.90;7.25;;;6.10;27.30;;;;;;6301838;22;20157;-81
2021/04/08 08:30:23;;;;;;;8.25;6.97;;;6.10;27.80;;;;;;6302166;22;20165;-83
2021/04/08 08:33:06;;;;;;;11.45;6.70;;;6.10;27.20;;;;;;6296100;22;20174;-82
2021/04/08 08:35:33;;;;;;;7.10;5.78;;;6.50;26.30;;;;;;6287941;22;20181;-81
2021/04/08 08:38:12;;;;;;;9.35;6.00;;;6.80;24.90;;;;;;6291891;22;20185;-82
2021/04/08 08:40:39;;;;;;;7.57;5.55;;;6.70;25.10;;;;;;6291714;22;20154;-82
2021/04/08 08:43:07;;;;;;;12.20;6.97;;;6.70;25.30;;;;;;6295341;22;20227;-81
2021/04/08 08:45:36;;;;;;;7.07;6.25;;;6.90;24.90;;;;;;6301956;22;20165;-82
2021/04/08 08:48:07;;;;;;;11.88;6.28;;;7.30;24.50;;;;;;6302876;22;20183;-87
2021/04/08 08:50:35;;;;;;;7.80;5.95;;;7.60;24.10;;;;;;6302127;22;20202;-85
2021/04/08 08:53:03;;;;;;;7.90;5.20;;;8.00;21.80;;;;;;6297301;22;20221;-84
2021/04/08 08:55:31;;;;;;;9.63;6.32;;;8.00;21.10;;;;;;6329640;22;20326;-81
2021/04/08 08:57:59;;;;;;;9.75;5.28;;;7.90;21.10;;;;;;6323923;22;20263;-82
2021/04/08 09:00:28;;;;;;;8.93;6.22;;;7.90;21.10;;;;;;6294361;22;20238;-81
2021/04/08 09:02:57;;;;;;;7.80;5.30;;;8.00;20.60;;;;;;6293824;22;20197;-82
2021/04/08 09:05:27;;;;;;;7.07;5.85;;;8.10;20.50;;;;;;6292319;22;20240;-82
2021/04/08 09:08:04;;;;;;;7.70;5.55;;;8.10;21.40;;;;;;6290683;22;20184;-84
2021/04/08 09:10:36;;;;;;;7.65;6.50;;;8.00;21.10;;;;;;6297778;22;20225;-81
2021/04/08 09:13:05;;;;;;;7.57;5.28;;;7.90;21.10;;;;;;6291621;22;20174;-81
2021/04/08 09:15:31;;;;;;;12.75;5.80;;;7.80;21.00;;;;;;6291527;22;20237;-82
2021/04/08 09:18:00;;;;;;;8.52;5.13;;;7.90;21.10;;;;;;6292413;22;20174;-80
2021/04/08 09:20:28;;;;;;;5.85;4.80;;;8.00;20.10;;;;;;6291038;22;20177;-82
2021/04/08 09:22:59;;;;;;;6.25;5.13;;;7.70;19.90;;;;;;6293728;22;20231;-80
2021/04/08 09:25:29;;;;;;;7.85;5.82;;;7.60;20.80;;;;;;6297479;22;20192;-81
2021/04/08 09:27:58;;;;;;;7.93;5.50;;;7.90;20.20;;;;;;6297952;22;20187;-82
2021/04/08 09:30:49;;;;;;;6.20;4.82;;;8.50;19.00;;;;;;6296183;22;20177;-81
2021/04/08 09:33:17;;;;;;;6.25;4.97;;;8.80;17.70;;;;;;6289123;22;20627;-81
2021/04/08 09:35:45;;;;;;;9.95;5.30;;;9.10;16.60;;;;;;6283977;22;20208;-81
2021/04/08 09:38:14;;;;;;;8.18;4.80;;;9.10;17.10;;;;;;6297089;22;20260;-80
2021/04/08 09:41:02;;;;;;;6.93;5.35;;;9.50;16.90;;;;;;6288899;22;20231;-81
2021/04/08 09:43:30;;;;;;;5.95;5.43;;;9.70;16.60;;;;;;6281935;22;20193;-81
2021/04/08 09:46:04;;;;;;;8.85;5.00;;;9.90;15.90;;;;;;6292449;22;20654;-81
2021/04/08 09:48:47;;;;;;;8.18;5.60;;;9.80;16.00;;;;;;6295072;22;20209;-80
2021/04/08 09:51:31;;;;;;;9.00;4.93;;;9.70;16.10;;;;;;6292550;22;20176;-82
2021/04/08 09:54:14;;;;;;;5.95;5.32;;;10.00;14.70;;;;;;6291382;22;20183;-82
2021/04/08 09:56:53;;;;;;;9.98;4.97;;;9.90;15.90;;;;;;6288931;22;20187;-81
2021/04/08 09:59:21;;;;;;;5.95;4.78;;;9.70;15.50;;;;;;6294527;22;20272;-83
2021/04/08 10:01:48;;;;;;;5.25;4.40;;;9.30;15.50;;;;;;6284798;22;20477;-81
2021/04/08 10:04:19;;;;;;;8.85;5.20;;;9.30;15.80;;;;;;6286972;22;20181;-81
2021/04/08 10:06:46;;;;;;;5.32;4.60;;;9.30;16.00;;;;;;6286976;22;20206;-81
2021/04/08 10:09:14;;;;;;;5.93;4.60;;;9.30;16.00;;;;;;6286875;22;20205;-81
2021/04/08 10:11:42;;;;;;;6.63;5.50;;;9.30;16.50;;;;;;6290733;22;20234;-83
2021/04/08 10:14:22;;;;;;;7.25;5.95;;;9.30;16.30;;;;;;6298505;22;20173;-83
2021/04/08 10:17:09;;;;;;;5.78;5.00;;;9.40;17.10;;;;;;6289782;22;20196;-82
2021/04/08 10:19:39;;;;;;;7.57;5.60;;;9.80;16.00;;;;;;6286742;22;20193;-82
2021/04/08 10:22:06;;;;;;;6.53;5.40;;;9.40;16.30;;;;;;6288624;22;20189;-82
2021/04/08 10:24:38;;;;;;;8.23;5.45;;;9.20;16.20;;;;;;6287315;22;20181;-81
2021/04/08 10:27:13;;;;;;;6.80;5.40;;;9.20;16.60;;;;;;6296507;22;20177;-82
2021/04/08 10:29:39;;;;;;;6.32;5.50;;;9.60;16.70;;;;;;6294836;22;20254;-81
2021/04/08 10:32:07;;;;;;;5.75;5.25;;;9.90;15.90;;;;;;6297092;22;20165;-80
2021/04/08 10:34:35;;;;;;;11.88;5.97;;;9.50;15.90;;;;;;6299632;22;20428;-82
2021/04/08 10:37:03;;;;;;;7.45;5.50;;;9.20;16.50;;;;;;6296612;22;20181;-81
2021/04/08 10:39:31;;;;;;;6.18;4.95;;;9.20;16.90;;;;;;6298238;22;20284;-82
2021/04/08 10:41:59;;;;;;;6.55;5.60;;;9.00;16.90;;;;;;6300223;22;20173;-82
2021/04/08 10:44:27;;;;;;;9.55;6.15;;;9.00;17.00;;;;;;6298399;22;20297;-81
2021/04/08 10:46:55;;;;;;;9.27;5.95;;;8.80;17.60;;;;;;6295159;22;20264;-82
2021/04/08 10:49:28;;;;;;;7.13;6.05;;;8.70;17.90;;;;;;6296684;22;20201;-81
2021/04/08 10:51:55;;;;;;;8.30;5.40;;;8.90;17.50;;;;;;6296182;22;20185;-81
2021/04/08 10:54:27;;;;;;;5.65;4.80;;;9.10;17.70;;;;;;6289669;22;20181;-81
2021/04/08 10:56:54;;;;;;;5.82;4.90;;;9.30;17.60;;;;;;6288188;22;20223;-80
2021/04/08 10:59:22;;;;;;;9.20;4.63;;;9.50;16.30;;;;;;6295963;22;20197;-79
2021/04/08 11:01:50;;;;;;;5.85;4.18;;;9.40;15.70;;;;;;6298280;22;20185;-79
2021/04/08 11:04:17;;;;;;;9.85;5.28;;;9.50;15.80;;;;;;6297847;22;20173;-79
2021/04/08 11:06:44;;;;;;;7.60;5.65;;;9.40;16.00;;;;;;6291584;22;20245;-81
2021/04/08 11:09:11;;;;;;;8.15;5.53;;;9.20;16.40;;;;;;6294096;22;20213;-80
2021/04/08 11:11:38;;;;;;;8.00;6.00;;;9.40;16.80;;;;;;6293982;22;20219;-81
2021/04/08 11:14:04;;;;;;;10.43;5.50;;;9.00;17.20;;;;;;6298240;22;20173;-81
2021/04/08 11:16:32;;;;;;;7.13;4.85;;;8.80;17.60;;;;;;6300773;22;20177;-80
2021/04/08 11:19:02;;;;;;;7.97;4.82;;;8.90;17.00;;;;;;6292956;22;20201;-80
2021/04/08 11:21:29;;;;;;;5.80;5.00;;;8.80;17.30;;;;;;6301854;22;20165;-79
2021/04/08 11:23:57;;;;;;;7.75;5.18;;;8.70;18.00;;;;;;6299980;22;20204;-83
2021/04/08 11:26:24;;;;;;;9.27;5.13;;;9.00;17.60;;;;;;6296204;22;20197;-80
2021/04/08 11:28:57;;;;;;;8.07;5.10;;;8.80;17.70;;;;;;6292847;22;20216;-82
2021/04/08 11:31:26;;;;;;;6.28;5.30;;;8.60;18.40;;;;;;6292780;22;20647;-79
2021/04/08 11:33:57;;;;;;;6.10;5.30;;;8.90;17.50;;;;;;6291799;22;20200;-80
2021/04/08 11:36:25;;;;;;;9.20;4.88;;;8.60;18.10;;;;;;6289511;22;20215;-80
2021/04/08 11:38:52;;;;;;;6.55;5.28;;;8.70;17.70;;;;;;6292313;22;20200;-81
2021/04/08 11:41:19;;;;;;;6.90;4.97;;;9.00;17.60;;;;;;6295855;22;20185;-81
2021/04/08 11:43:48;;;;;;;4.82;4.43;;;9.30;17.50;;;;;;6296045;22;20197;-83
2021/04/08 11:46:34;;;;;;;5.88;4.65;;;9.60;17.60;;;;;;6297275;22;20173;-79
2021/04/08 11:49:01;;;;;;;5.97;4.80;;;10.00;15.90;;;;;;6297324;22;20201;-79
2021/04/08 11:51:30;;;;;;;6.95;5.07;;;10.40;16.00;;;;;;6293470;22;20206;-81
2021/04/08 11:54:08;;;;;;;6.55;5.45;;;10.40;16.10;;;;;;6290935;22;20162;-80
2021/04/08 11:56:36;;;;;;;6.43;5.57;;;10.60;16.10;;;;;;6291644;22;20169;-80
2021/04/08 11:59:07;;;;;;;7.97;4.95;;;11.10;15.00;;;;;;6295652;22;20193;-80
2021/04/08 12:01:37;;;;;;;5.57;5.05;;;11.60;14.60;;;;;;6296667;22;20191;-81
2021/04/08 12:04:13;;;;;;;6.90;5.15;;;12.00;14.90;;;;;;6290671;22;20201;-81
2021/04/08 12:06:45;;;;;;;5.70;5.10;;;12.10;14.20;;;;;;6290297;22;20169;-81
2021/04/08 12:09:12;;;;;;;6.47;5.20;;;12.10;13.90;;;;;;6290268;22;20196;-80
2021/04/08 12:11:56;;;;;;;6.47;5.25;;;12.00;14.50;;;;;;6289184;22;20235;-82
2021/04/08 12:14:23;;;;;;;6.03;4.93;;;12.30;13.70;;;;;;6287765;22;20623;-80
2021/04/08 12:17:06;;;;;;;7.93;5.50;;;12.30;15.00;;;;;;6292515;22;20259;-83
2021/04/08 12:19:34;;;;;;;6.60;4.57;;;12.50;14.00;;;;;;6293713;22;20197;-82
2021/04/08 12:22:04;;;;;;;7.03;5.30;;;12.50;14.10;;;;;;6291382;22;20165;-82
2021/04/08 12:24:30;;;;;;;9.35;5.03;;;12.10;13.60;;;;;;6294022;22;20181;-81
2021/04/08 12:26:57;;;;;;;10.45;5.10;;;11.70;14.70;;;;;;6294484;22;20200;-83
2021/04/08 12:29:24;;;;;;;5.95;5.22;;;12.00;14.90;;;;;;6291561;22;20565;-80
2021/04/08 12:31:54;;;;;;;6.10;4.75;;;12.30;14.40;;;;;;6285498;22;20188;-81
2021/04/08 12:34:22;;;;;;;6.70;4.35;;;12.40;14.40;;;;;;6283313;22;20726;-81
2021/04/08 12:36:49;;;;;;;6.00;5.05;;;12.60;13.20;;;;;;6282868;22;20253;-82
2021/04/08 12:39:16;;;;;;;16.00;4.80;;;12.80;12.40;;;;;;6283136;22;20193;-81
2021/04/08 12:41:43;;;;;;;6.75;5.15;;;12.70;13.60;;;;;;6287092;22;20177;-83
2021/04/08 12:44:09;;;;;;;5.35;4.85;;;12.80;13.40;;;;;;6282005;22;20204;-82
2021/04/08 12:46:36;;;;;;;7.95;5.22;;;12.40;13.40;;;;;;6294906;22;20177;-81
2021/04/08 12:49:02;;;;;;;7.72;5.28;;;12.10;14.20;;;;;;6287113;22;20227;-80
2021/04/08 12:51:29;;;;;;;7.25;5.50;;;12.10;15.00;;;;;;6286194;22;20318;-81
2021/04/08 12:53:56;;;;;;;6.03;5.43;;;12.30;14.80;;;;;;6283682;22;20195;-82
2021/04/08 12:56:24;;;;;;;6.72;5.47;;;12.50;15.10;;;;;;6282686;22;20640;-80
2021/04/08 12:58:52;;;;;;;12.68;5.57;;;12.70;13.90;;;;;;6294116;22;20189;-81
2021/04/08 13:01:18;;;;;;;6.03;5.18;;;12.90;13.30;;;;;;6294756;22;20200;-81
2021/04/08 13:03:45;;;;;;;7.10;5.07;;;12.60;13.50;;;;;;6291237;22;20197;-81
2021/04/08 13:06:12;;;;;;;6.88;4.40;;;12.80;13.30;;;;;;6289467;22;20208;-80